Time;durP1;ratioP1;P1;durP2;ratioP2;P2;SDS_P1;SDS_P2;PMS_P1;PMS_P2;Temp;Humidity;BMP_temperature;BMP_pressure;BME280_temperature;BME280_humidity;BME280_pressure;Samples;Min_cycle;Max_cycle;Signal;HPM_P1;HPM_P2
2023/09/28 00:00:58;;;;;;;;;;;12.80;99.90;;;;;;5076621;28;19909;-55
2023/09/28 00:03:24;;;;;;;;;;;12.70;99.90;;;;;;5076247;28;19912;-55
2023/09/28 00:05:53;;;;;;;;;;;12.60;99.90;;;;;;5075958;28;20021;-55
2023/09/28 00:08:19;;;;;;;;;;;12.50;99.90;;;;;;5076057;28;19999;-55
2023/09/28 00:10:45;;;;;;;;;;;12.60;99.90;;;;;;5076045;28;19947;-55
2023/09/28 00:13:11;;;;;;;;;;;12.60;99.90;;;;;;5075768;28;19912;-55
2023/09/28 00:15:37;;;;;;;;;;;12.60;99.90;;;;;;5075987;28;19995;-55
2023/09/28 00:18:04;;;;;;;;;;;12.60;99.90;;;;;;5075986;28;19909;-55
2023/09/28 00:20:30;;;;;;;;;;;12.50;99.90;;;;;;5075078;28;20007;-55
2023/09/28 00:22:56;;;;;;;;;;;12.50;99.90;;;;;;5075887;28;19999;-55
2023/09/28 00:25:25;;;;;;;;;;;12.40;99.90;;;;;;5075716;28;19993;-55
2023/09/28 00:27:52;;;;;;;;;;;12.40;99.90;;;;;;5075042;28;19908;-55
2023/09/28 00:30:21;;;;;;;;;;;12.50;99.90;;;;;;5075793;28;19909;-55
2023/09/28 00:32:48;;;;;;;;;;;12.40;99.90;;;;;;5057619;28;19953;-55
2023/09/28 00:35:14;;;;;;;;;;;12.50;99.90;;;;;;5075778;28;20168;-55
2023/09/28 00:37:40;;;;;;;;;;;12.50;99.90;;;;;;5075536;28;20546;-55
2023/09/28 00:40:28;;;;;;;;;;;12.50;99.90;;;;;;5075757;28;20006;-55
2023/09/28 00:42:54;;;;;;;;;;;12.30;99.90;;;;;;5075464;28;19908;-55
2023/09/28 00:45:21;;;;;;;;;;;12.40;99.90;;;;;;5073543;28;19913;-55
2023/09/28 00:47:51;;;;;;;;;;;12.30;99.90;;;;;;5075603;28;20348;-55
2023/09/28 00:50:18;;;;;;;;;;;12.30;99.90;;;;;;5075522;28;19958;-55
2023/09/28 00:52:46;;;;;;;;;;;12.20;99.90;;;;;;5057558;28;19919;-55
2023/09/28 00:55:14;;;;;;;;;;;12.10;99.90;;;;;;5057524;28;19916;-55
2023/09/28 00:57:41;;;;;;;;;;;12.10;99.90;;;;;;5075236;28;19911;-55
2023/09/28 01:00:26;;;;;;;;;;;12.00;99.90;;;;;;5055446;28;19947;-55
2023/09/28 01:02:52;;;;;;;;;;;12.00;99.90;;;;;;5055417;28;19954;-55
2023/09/28 01:05:19;;;;;;;;;;;12.00;99.90;;;;;;5055386;28;19915;-55
2023/09/28 01:07:46;;;;;;;;;;;12.10;99.90;;;;;;5055225;28;19935;-55
2023/09/28 01:10:18;;;;;;;;;;;12.20;99.90;;;;;;5055372;28;19998;-55
2023/09/28 01:12:44;;;;;;;;;;;12.20;99.90;;;;;;5055149;28;19917;-55
2023/09/28 01:15:11;;;;;;;;;;;12.10;99.90;;;;;;5055152;28;20273;-55
2023/09/28 01:17:38;;;;;;;;;;;12.10;99.90;;;;;;5055348;28;20274;-55
2023/09/28 01:20:23;;;;;;;;;;;12.10;99.90;;;;;;5036674;28;19920;-55
2023/09/28 01:22:49;;;;;;;;;;;12.20;99.90;;;;;;5055079;28;20274;-55
2023/09/28 01:25:21;;;;;;;;;;;12.20;99.90;;;;;;5055007;28;20334;-55
2023/09/28 01:27:48;;;;;;;;;;;12.10;99.90;;;;;;5037114;28;19909;-55
2023/09/28 01:30:14;;;;;;;;;;;11.90;99.90;;;;;;5037416;28;20015;-55
2023/09/28 01:32:42;;;;;;;;;;;11.90;99.90;;;;;;5054902;28;20354;-55
2023/09/28 01:35:08;;;;;;;;;;;11.90;99.90;;;;;;5055180;28;19909;-55
2023/09/28 01:37:39;;;;;;;;;;;11.80;99.90;;;;;;5055165;28;19909;-55
2023/09/28 01:40:05;;;;;;;;;;;12.00;99.90;;;;;;5056526;28;19997;-55
2023/09/28 01:42:31;;;;;;;;;;;12.00;99.90;;;;;;5058571;28;19995;-55
2023/09/28 01:44:57;;;;;;;;;;;12.00;99.90;;;;;;5040125;28;20351;-55
2023/09/28 01:47:22;;;;;;;;;;;12.00;99.90;;;;;;5058364;28;20265;-55
2023/09/28 01:49:48;;;;;;;;;;;11.90;99.90;;;;;;5040552;28;19905;-55
2023/09/28 01:52:14;;;;;;;;;;;11.90;99.90;;;;;;5058374;28;19938;-55
2023/09/28 01:54:40;;;;;;;;;;;11.90;99.90;;;;;;5058488;28;19919;-55
2023/09/28 01:57:05;;;;;;;;;;;11.90;99.90;;;;;;5058098;28;19909;-55
2023/09/28 01:59:31;;;;;;;;;;;11.90;99.90;;;;;;5055597;28;20350;-55
2023/09/28 02:01:57;;;;;;;;;;;11.90;99.90;;;;;;5078253;28;20350;-55
2023/09/28 02:04:23;;;;;;;;;;;11.80;99.90;;;;;;5076980;28;19971;-55
2023/09/28 02:06:48;;;;;;;;;;;11.80;99.90;;;;;;5059784;28;19908;-55
2023/09/28 02:09:17;;;;;;;;;;;11.70;99.90;;;;;;5076888;28;19912;-55
2023/09/28 02:11:44;;;;;;;;;;;11.70;99.90;;;;;;5078221;28;19912;-55
2023/09/28 02:14:13;;;;;;;;;;;11.70;99.90;;;;;;5060050;28;19908;-55
2023/09/28 02:16:39;;;;;;;;;;;11.70;99.90;;;;;;5076786;28;19908;-55
2023/09/28 02:19:05;;;;;;;;;;;11.70;99.90;;;;;;5078002;28;19908;-55
2023/09/28 02:21:31;;;;;;;;;;;11.70;99.90;;;;;;5077980;28;20380;-55
2023/09/28 02:23:59;;;;;;;;;;;11.70;99.90;;;;;;5077856;28;19958;-55
2023/09/28 02:26:25;;;;;;;;;;;11.70;99.90;;;;;;5077790;28;19958;-55
2023/09/28 02:28:52;;;;;;;;;;;11.70;99.90;;;;;;5077811;28;19908;-55
2023/09/28 02:31:17;;;;;;;;;;;11.70;99.90;;;;;;5077651;28;19913;-55
2023/09/28 02:33:44;;;;;;;;;;;11.60;99.90;;;;;;5077644;28;19909;-55
2023/09/28 02:36:09;;;;;;;;;;;11.60;99.90;;;;;;5077652;28;19920;-55
2023/09/28 02:38:35;;;;;;;;;;;11.60;99.90;;;;;;5076276;28;19904;-55
2023/09/28 02:41:01;;;;;;;;;;;11.60;99.90;;;;;;5077594;28;19908;-55
2023/09/28 02:43:27;;;;;;;;;;;11.60;99.90;;;;;;5077310;28;20323;-55
2023/09/28 02:45:55;;;;;;;;;;;11.50;99.90;;;;;;5076234;28;19958;-55
2023/09/28 02:48:21;;;;;;;;;;;11.60;99.90;;;;;;5077665;28;19909;-55
2023/09/28 02:50:48;;;;;;;;;;;11.50;99.90;;;;;;5076953;28;19999;-55
2023/09/28 02:53:14;;;;;;;;;;;11.60;99.90;;;;;;5075956;28;20376;-55
2023/09/28 02:55:42;;;;;;;;;;;11.50;99.90;;;;;;5077296;28;19962;-55
2023/09/28 02:58:08;;;;;;;;;;;11.40;99.90;;;;;;5073361;28;19999;-55
2023/09/28 03:00:35;;;;;;;;;;;11.40;99.90;;;;;;5039416;28;19912;-55
2023/09/28 03:03:03;;;;;;;;;;;11.40;99.90;;;;;;5057042;28;19986;-55
2023/09/28 03:05:29;;;;;;;;;;;11.40;99.90;;;;;;5039370;28;20286;-55
2023/09/28 03:07:54;;;;;;;;;;;11.40;99.90;;;;;;5057014;28;19917;-55
2023/09/28 03:10:20;;;;;;;;;;;11.40;99.90;;;;;;5056996;28;19909;-55
2023/09/28 03:12:47;;;;;;;;;;;11.30;99.90;;;;;;5056507;28;20015;-55
2023/09/28 03:15:13;;;;;;;;;;;11.20;99.90;;;;;;5056911;28;20316;-55
2023/09/28 03:17:40;;;;;;;;;;;11.30;99.90;;;;;;5057042;28;20312;-55
2023/09/28 03:20:17;;;;;;;;;;;11.30;99.90;;;;;;5038951;28;20251;-55
2023/09/28 03:22:43;;;;;;;;;;;11.10;99.90;;;;;;5056730;28;20266;-55
2023/09/28 03:25:16;;;;;;;;;;;11.00;99.90;;;;;;5057003;28;19947;-54
2023/09/28 03:27:42;;;;;;;;;;;11.00;99.90;;;;;;5056761;28;19909;-55
2023/09/28 03:30:09;;;;;;;;;;;11.00;99.90;;;;;;5038691;28;19909;-55
2023/09/28 03:32:37;;;;;;;;;;;11.10;99.90;;;;;;5056681;28;19909;-55
2023/09/28 03:35:03;;;;;;;;;;;11.00;99.90;;;;;;5056569;28;19916;-55
2023/09/28 03:37:29;;;;;;;;;;;10.90;99.90;;;;;;5056445;28;19909;-54
2023/09/28 03:39:58;;;;;;;;;;;11.00;99.90;;;;;;5056201;28;19913;-55
2023/09/28 03:42:24;;;;;;;;;;;10.90;99.90;;;;;;5056479;28;19999;-54
2023/09/28 03:44:49;;;;;;;;;;;11.00;99.90;;;;;;5056696;28;19955;-55
2023/09/28 03:47:15;;;;;;;;;;;10.90;99.90;;;;;;5056345;28;19909;-55
2023/09/28 03:49:41;;;;;;;;;;;10.90;99.90;;;;;;5056349;28;20003;-55
2023/09/28 03:52:07;;;;;;;;;;;10.90;99.90;;;;;;5056235;28;19913;-55
2023/09/28 03:54:33;;;;;;;;;;;10.90;99.90;;;;;;5056215;28;20380;-55
2023/09/28 03:56:58;;;;;;;;;;;10.90;99.90;;;;;;5055792;28;19913;-55
2023/09/28 03:59:25;;;;;;;;;;;10.90;99.90;;;;;;5070330;28;19912;-55
2023/09/28 04:01:51;;;;;;;;;;;10.80;99.90;;;;;;5075647;28;19922;-55
2023/09/28 04:04:16;;;;;;;;;;;10.80;99.90;;;;;;5075735;28;20031;-55
2023/09/28 04:06:42;;;;;;;;;;;10.80;99.90;;;;;;5075986;28;19951;-55
2023/09/28 04:09:08;;;;;;;;;;;10.70;99.90;;;;;;5075945;28;19956;-55
2023/09/28 04:11:37;;;;;;;;;;;10.70;99.90;;;;;;5075953;28;19916;-55
2023/09/28 04:14:03;;;;;;;;;;;10.80;99.90;;;;;;5076128;28;19919;-55
2023/09/28 04:16:28;;;;;;;;;;;10.80;99.90;;;;;;5076042;28;20284;-55
2023/09/28 04:18:54;;;;;;;;;;;10.80;99.90;;;;;;5075922;28;19954;-55
2023/09/28 04:21:20;;;;;;;;;;;10.80;99.90;;;;;;5075855;28;19912;-55
2023/09/28 04:23:46;;;;;;;;;;;10.70;99.90;;;;;;5075717;28;20304;-55
2023/09/28 04:26:12;;;;;;;;;;;10.70;99.90;;;;;;5075918;28;20285;-55
2023/09/28 04:28:38;;;;;;;;;;;10.70;99.90;;;;;;5075685;28;20280;-55
2023/09/28 04:31:03;;;;;;;;;;;10.60;99.90;;;;;;5075742;28;20269;-55
2023/09/28 04:33:29;;;;;;;;;;;10.60;99.90;;;;;;5075719;28;19904;-55
2023/09/28 04:35:55;;;;;;;;;;;10.60;99.90;;;;;;5075738;28;20022;-55
2023/09/28 04:38:22;;;;;;;;;;;10.50;99.90;;;;;;5075774;28;19971;-55
2023/09/28 04:40:47;;;;;;;;;;;10.50;99.90;;;;;;5075682;28;19931;-55
2023/09/28 04:43:13;;;;;;;;;;;10.60;99.90;;;;;;5076126;28;20003;-54
2023/09/28 04:45:39;;;;;;;;;;;10.70;99.90;;;;;;5075679;28;19943;-54
2023/09/28 04:48:06;;;;;;;;;;;10.80;99.90;;;;;;5075550;28;20007;-54
2023/09/28 04:50:31;;;;;;;;;;;10.70;99.90;;;;;;5075539;28;19975;-54
2023/09/28 04:52:58;;;;;;;;;;;10.70;99.90;;;;;;5075805;28;20005;-54
2023/09/28 04:55:23;;;;;;;;;;;10.60;99.90;;;;;;5075453;28;19912;-54
2023/09/28 04:57:50;;;;;;;;;;;10.60;99.90;;;;;;5074177;28;19912;-54
2023/09/28 05:00:16;;;;;;;;;;;10.60;99.90;;;;;;5055473;28;19909;-54
2023/09/28 05:02:45;;;;;;;;;;;10.50;99.90;;;;;;5055284;28;20324;-54
2023/09/28 05:05:11;;;;;;;;;;;10.60;99.90;;;;;;5055412;28;20004;-54
2023/09/28 05:07:37;;;;;;;;;;;10.60;99.90;;;;;;5055261;28;19913;-54
2023/09/28 05:10:03;;;;;;;;;;;10.70;99.90;;;;;;5055196;28;20389;-54
2023/09/28 05:12:30;;;;;;;;;;;10.90;99.90;;;;;;5054250;28;19913;-54
2023/09/28 05:14:57;;;;;;;;;;;11.10;99.90;;;;;;5058184;28;20251;-54
2023/09/28 05:17:23;;;;;;;;;;;11.40;99.90;;;;;;5058957;28;19909;-54
2023/09/28 05:19:49;;;;;;;;;;;11.80;99.90;;;;;;5059010;28;19959;-54
2023/09/28 05:22:15;;;;;;;;;;;12.30;99.90;;;;;;5058852;28;19919;-54
2023/09/28 05:24:40;;;;;;;;;;;12.50;99.90;;;;;;5057550;28;19904;-54
2023/09/28 05:27:07;;;;;;;;;;;12.60;99.90;;;;;;5054550;28;19915;-54
2023/09/28 05:29:33;;;;;;;;;;;12.60;99.90;;;;;;5057952;28;19916;-54
2023/09/28 05:31:59;;;;;;;;;;;12.50;99.90;;;;;;5058494;28;19948;-54
2023/09/28 05:34:24;;;;;;;;;;;12.60;99.90;;;;;;5056997;28;19916;-54
2023/09/28 05:36:50;;;;;;;;;;;12.60;99.90;;;;;;5058303;28;19908;-55
2023/09/28 05:39:19;;;;;;;;;;;12.70;99.90;;;;;;5058696;28;19995;-54
2023/09/28 05:41:45;;;;;;;;;;;12.80;99.90;;;;;;5058665;28;19912;-55
2023/09/28 05:44:11;;;;;;;;;;;12.70;99.90;;;;;;5058173;28;19908;-55
2023/09/28 05:46:38;;;;;;;;;;;12.80;99.90;;;;;;5069458;28;19915;-54
2023/09/28 05:49:05;;;;;;;;;;;13.10;99.90;;;;;;5062454;28;20397;-55
2023/09/28 05:51:30;;;;;;;;;;;13.10;99.90;;;;;;5058511;28;20051;-54
2023/09/28 05:53:56;;;;;;;;;;;13.30;99.90;;;;;;5058204;28;19951;-54
2023/09/28 05:56:22;;;;;;;;;;;13.30;99.90;;;;;;5058314;28;20349;-55
2023/09/28 05:58:48;;;;;;;;;;;13.40;99.90;;;;;;5055557;28;19916;-55
2023/09/28 06:01:16;;;;;;;;;;;13.50;99.90;;;;;;5054079;28;19916;-55
2023/09/28 06:03:43;;;;;;;;;;;13.80;99.90;;;;;;5055638;28;19995;-54
2023/09/28 06:06:27;;;;;;;;;;;14.00;99.90;;;;;;5054795;28;19959;-55
2023/09/28 06:08:53;;;;;;;;;;;14.50;99.90;;;;;;5053754;28;20445;-55
2023/09/28 06:11:22;;;;;;;;;;;14.80;99.90;;;;;;5057017;28;19917;-55
2023/09/28 06:13:48;;;;;;;;;;;15.00;99.90;;;;;;5055254;28;19909;-55
2023/09/28 06:16:14;;;;;;;;;;;15.50;99.90;;;;;;5039112;28;20266;-55
2023/09/28 06:18:40;;;;;;;;;;;15.70;99.90;;;;;;5042822;28;19991;-54
2023/09/28 06:21:06;;;;;;;;;;;16.10;99.90;;;;;;5056835;28;19917;-54
2023/09/28 06:23:33;;;;;;;;;;;16.20;99.90;;;;;;5057332;28;19948;-55
2023/09/28 06:25:59;;;;;;;;;;;16.00;99.90;;;;;;5055937;28;20011;-55
2023/09/28 06:28:25;;;;;;;;;;;16.20;99.90;;;;;;5055799;28;19966;-55
2023/09/28 06:30:54;;;;;;;;;;;16.00;99.90;;;;;;5057062;28;19909;-55
2023/09/28 06:33:25;;;;;;;;;;;15.90;99.90;;;;;;5055467;28;19990;-55
2023/09/28 06:35:51;;;;;;;;;;;16.50;99.90;;;;;;5038421;28;20315;-54
2023/09/28 06:38:18;;;;;;;;;;;16.70;99.90;;;;;;5057143;28;20090;-55
2023/09/28 06:40:50;;;;;;;;;;;17.10;99.90;;;;;;5047520;28;19931;-55
2023/09/28 06:43:15;;;;;;;;;;;17.30;99.90;;;;;;5055297;28;19912;-55
2023/09/28 06:45:42;;;;;;;;;;;17.70;99.90;;;;;;5056517;28;19923;-55
2023/09/28 06:48:08;;;;;;;;;;;18.30;99.20;;;;;;5055822;28;19968;-55
2023/09/28 06:50:39;;;;;;;;;;;18.60;98.40;;;;;;5054985;28;19962;-55
2023/09/28 06:53:05;;;;;;;;;;;19.10;97.30;;;;;;5054909;28;20289;-55
2023/09/28 06:55:31;;;;;;;;;;;19.40;95.80;;;;;;5046282;28;19909;-55
2023/09/28 06:57:57;;;;;;;;;;;19.00;95.20;;;;;;5056831;28;20020;-55
2023/09/28 07:00:23;;;;;;;;;;;18.90;94.50;;;;;;5055263;28;20255;-55
2023/09/28 07:02:49;;;;;;;;;;;19.60;94.00;;;;;;5056734;28;19916;-55
2023/09/28 07:05:18;;;;;;;;;;;19.70;93.10;;;;;;5057359;28;19908;-55
2023/09/28 07:07:45;;;;;;;;;;;19.90;92.80;;;;;;5057056;28;20485;-55
2023/09/28 07:10:14;;;;;;;;;;;20.40;92.00;;;;;;5056635;28;19917;-55
2023/09/28 07:12:40;;;;;;;;;;;21.20;91.10;;;;;;5056785;28;19912;-55
2023/09/28 07:15:06;;;;;;;;;;;21.80;88.50;;;;;;5057207;28;19908;-55
2023/09/28 07:17:33;;;;;;;;;;;22.10;84.90;;;;;;5055682;28;19916;-55
2023/09/28 07:19:59;;;;;;;;;;;22.00;83.90;;;;;;5056943;28;19916;-55
2023/09/28 07:22:25;;;;;;;;;;;22.20;82.90;;;;;;5057102;28;19962;-55
2023/09/28 07:24:50;;;;;;;;;;;21.90;83.90;;;;;;5056946;28;19909;-55
2023/09/28 07:27:16;;;;;;;;;;;22.40;79.70;;;;;;5056899;28;19917;-55
2023/09/28 07:29:42;;;;;;;;;;;22.90;77.90;;;;;;5056131;28;19947;-56
2023/09/28 07:32:08;;;;;;;;;;;22.90;75.20;;;;;;5056823;28;19920;-55
2023/09/28 07:34:34;;;;;;;;;;;23.20;74.90;;;;;;5056859;28;19907;-55
2023/09/28 07:37:01;;;;;;;;;;;23.40;72.30;;;;;;5056992;28;19909;-55
2023/09/28 07:39:26;;;;;;;;;;;23.60;70.60;;;;;;5056901;28;19952;-55
2023/09/28 07:41:52;;;;;;;;;;;23.60;70.10;;;;;;5056717;28;20056;-55
2023/09/28 07:44:21;;;;;;;;;;;23.70;67.30;;;;;;5056694;28;19935;-55
2023/09/28 07:46:47;;;;;;;;;;;24.10;69.10;;;;;;5056679;28;20338;-55
2023/09/28 07:49:14;;;;;;;;;;;24.30;65.10;;;;;;5056416;28;19915;-55
2023/09/28 07:51:40;;;;;;;;;;;24.60;63.90;;;;;;5056599;28;19967;-55
2023/09/28 07:54:06;;;;;;;;;;;24.50;60.90;;;;;;5056194;28;19912;-55
2023/09/28 07:56:32;;;;;;;;;;;24.60;61.30;;;;;;5056096;28;19955;-55
2023/09/28 07:58:59;;;;;;;;;;;24.80;60.90;;;;;;5056005;28;20389;-55
2023/09/28 08:01:26;;;;;;;;;;;24.30;61.50;;;;;;5056471;28;19916;-55
2023/09/28 08:03:52;;;;;;;;;;;24.10;61.70;;;;;;5053322;28;19916;-55
2023/09/28 08:06:19;;;;;;;;;;;24.80;58.70;;;;;;5055544;28;19917;-56
2023/09/28 08:08:45;;;;;;;;;;;24.70;56.10;;;;;;5056192;28;19920;-55
2023/09/28 08:11:12;;;;;;;;;;;25.10;56.30;;;;;;5055447;28;19967;-55
2023/09/28 08:13:38;;;;;;;;;;;25.80;53.80;;;;;;5055920;28;20287;-56
2023/09/28 08:16:04;;;;;;;;;;;26.00;53.90;;;;;;5056232;28;19912;-55
2023/09/28 08:18:30;;;;;;;;;;;26.40;55.20;;;;;;5055199;28;19915;-55
2023/09/28 08:20:56;;;;;;;;;;;26.50;54.20;;;;;;5055152;28;19944;-55
2023/09/28 08:23:22;;;;;;;;;;;25.80;55.00;;;;;;5055248;28;20424;-55
2023/09/28 08:25:48;;;;;;;;;;;26.10;53.30;;;;;;5037373;28;19912;-56
2023/09/28 08:28:14;;;;;;;;;;;26.60;53.00;;;;;;5055286;28;20258;-56
2023/09/28 08:30:40;;;;;;;;;;;26.40;54.30;;;;;;5055521;28;19905;-56
2023/09/28 08:33:08;;;;;;;;;;;26.80;50.60;;;;;;5055516;28;19939;-55
2023/09/28 08:35:35;;;;;;;;;;;26.70;52.40;;;;;;5055634;28;20370;-55
2023/09/28 08:38:01;;;;;;;;;;;27.00;49.50;;;;;;5055977;28;19916;-56
2023/09/28 08:40:28;;;;;;;;;;;27.50;52.80;;;;;;5056157;28;19911;-56
2023/09/28 08:42:56;;;;;;;;;;;27.60;51.40;;;;;;5055865;28;20296;-56
2023/09/28 08:45:22;;;;;;;;;;;28.20;51.20;;;;;;5055097;28;20203;-56
2023/09/28 08:47:49;;;;;;;;;;;28.60;47.10;;;;;;5055408;28;20419;-56
2023/09/28 08:50:19;;;;;;;;;;;28.50;45.40;;;;;;5057702;28;19913;-56
2023/09/28 08:52:45;;;;;;;;;;;29.10;45.10;;;;;;5059362;28;19948;-56
2023/09/28 08:55:12;;;;;;;;;;;28.70;45.10;;;;;;5059596;28;20365;-56
2023/09/28 08:57:40;;;;;;;;;;;28.80;45.30;;;;;;5059969;28;19936;-55
2023/09/28 09:00:13;;;;;;;;;;;29.30;45.10;;;;;;5039617;28;19960;-56
2023/09/28 09:02:42;;;;;;;;;;;29.40;43.10;;;;;;5039182;28;19913;-56
2023/09/28 09:05:08;;;;;;;;;;;30.00;43.90;;;;;;5039239;28;20344;-56
2023/09/28 09:07:36;;;;;;;;;;;30.30;42.50;;;;;;5039092;28;19955;-56
2023/09/28 09:10:02;;;;;;;;;;;30.70;40.40;;;;;;5039168;28;19909;-56
2023/09/28 09:12:32;;;;;;;;;;;30.90;40.20;;;;;;5038915;28;20007;-56
2023/09/28 09:14:58;;;;;;;;;;;30.40;39.60;;;;;;5039425;28;20273;-56
2023/09/28 09:17:33;;;;;;;;;;;30.50;38.40;;;;;;5039016;28;19908;-56
2023/09/28 09:19:59;;;;;;;;;;;30.20;39.00;;;;;;5038992;28;19909;-56
2023/09/28 09:22:27;;;;;;;;;;;30.40;39.90;;;;;;5039041;28;20003;-56
2023/09/28 09:24:53;;;;;;;;;;;30.80;38.50;;;;;;5038756;28;19963;-56
2023/09/28 09:27:24;;;;;;;;;;;30.90;39.90;;;;;;5038697;28;19944;-56
2023/09/28 09:29:50;;;;;;;;;;;31.00;40.70;;;;;;5038739;28;19915;-56
2023/09/28 09:32:20;;;;;;;;;;;30.70;39.20;;;;;;5038692;28;20011;-56
2023/09/28 09:34:46;;;;;;;;;;;31.10;39.50;;;;;;5038481;28;19909;-56
2023/09/28 09:37:12;;;;;;;;;;;31.20;39.70;;;;;;5038469;28;19909;-56
2023/09/28 09:39:39;;;;;;;;;;;31.50;36.00;;;;;;5038580;28;19931;-56
2023/09/28 09:42:04;;;;;;;;;;;31.00;36.50;;;;;;5038556;28;19912;-56
2023/09/28 09:44:30;;;;;;;;;;;30.40;36.20;;;;;;5038457;28;19916;-56
2023/09/28 09:46:57;;;;;;;;;;;31.20;37.60;;;;;;5038288;28;19912;-56
2023/09/28 09:49:24;;;;;;;;;;;31.50;34.70;;;;;;5038431;28;20377;-55
2023/09/28 09:51:50;;;;;;;;;;;31.90;35.10;;;;;;5038151;28;19913;-56
2023/09/28 09:54:16;;;;;;;;;;;32.10;33.80;;;;;;5037767;28;20220;-55
2023/09/28 09:56:44;;;;;;;;;;;32.20;33.60;;;;;;5038365;28;19916;-56
2023/09/28 09:59:15;;;;;;;;;;;32.30;34.80;;;;;;5062639;28;19922;-56
2023/09/28 10:01:42;;;;;;;;;;;32.60;31.80;;;;;;5077013;28;19908;-56
2023/09/28 10:04:12;;;;;;;;;;;31.20;27.10;;;;;;5077402;28;19909;-56
2023/09/28 10:06:43;;;;;;;;;;;31.30;27.70;;;;;;5077697;28;19912;-56
2023/09/28 10:09:10;;;;;;;;;;;31.20;27.00;;;;;;5055792;28;19924;-56
2023/09/28 10:11:39;;;;;;;;;;;31.40;24.90;;;;;;5057231;28;19913;-56
2023/09/28 10:14:05;;;;;;;;;;;30.00;25.50;;;;;;5057751;28;19912;-56
2023/09/28 10:16:34;;;;;;;;;;;28.60;28.00;;;;;;5057769;28;19913;-56
2023/09/28 10:19:00;;;;;;;;;;;28.70;27.30;;;;;;5057979;28;19915;-56
2023/09/28 10:21:26;;;;;;;;;;;29.80;27.00;;;;;;5057599;28;19915;-56
2023/09/28 10:23:56;;;;;;;;;;;30.10;25.00;;;;;;5056692;28;19999;-56
2023/09/28 10:26:28;;;;;;;;;;;30.40;24.80;;;;;;5057344;28;20007;-56
2023/09/28 10:29:06;;;;;;;;;;;30.20;25.80;;;;;;5057610;28;19912;-56
2023/09/28 10:31:34;;;;;;;;;;;30.50;25.60;;;;;;5057244;28;20090;-56
2023/09/28 10:34:00;;;;;;;;;;;30.90;25.40;;;;;;5057495;28;19909;-56
2023/09/28 10:36:27;;;;;;;;;;;30.60;23.50;;;;;;5057483;28;19913;-56
2023/09/28 10:39:13;;;;;;;;;;;29.90;26.20;;;;;;5057282;28;19910;-56
2023/09/28 10:41:39;;;;;;;;;;;29.90;25.00;;;;;;5057832;28;19940;-55
2023/09/28 10:44:21;;;;;;;;;;;29.70;24.10;;;;;;5057154;28;19913;-56
2023/09/28 10:46:50;;;;;;;;;;;28.90;25.50;;;;;;5057002;28;19908;-55
2023/09/28 10:49:23;;;;;;;;;;;29.50;25.90;;;;;;5057068;28;20031;-56
2023/09/28 10:51:49;;;;;;;;;;;29.60;24.40;;;;;;5057250;28;19919;-56
2023/09/28 10:54:15;;;;;;;;;;;28.80;24.90;;;;;;5056856;28;19912;-56
2023/09/28 10:56:41;;;;;;;;;;;28.80;25.00;;;;;;5057220;28;19916;-55
2023/09/28 10:59:07;;;;;;;;;;;29.70;25.00;;;;;;5056973;28;19909;-56
2023/09/28 11:01:38;;;;;;;;;;;30.00;25.70;;;;;;5056819;28;20289;-56
2023/09/28 11:04:04;;;;;;;;;;;30.40;25.90;;;;;;5057283;28;19997;-56
2023/09/28 11:06:30;;;;;;;;;;;29.40;23.60;;;;;;5055012;28;19975;-56
2023/09/28 11:08:57;;;;;;;;;;;29.30;25.90;;;;;;5052258;28;19908;-56
2023/09/28 11:11:23;;;;;;;;;;;29.80;27.50;;;;;;5056552;28;20273;-56
2023/09/28 11:13:50;;;;;;;;;;;29.90;29.80;;;;;;5056467;28;19908;-56
2023/09/28 11:16:17;;;;;;;;;;;30.70;27.10;;;;;;5056078;28;19958;-56
2023/09/28 11:18:42;;;;;;;;;;;30.50;25.60;;;;;;5057011;28;19912;-56
2023/09/28 11:21:08;;;;;;;;;;;29.50;24.40;;;;;;5050117;28;19932;-56
2023/09/28 11:23:34;;;;;;;;;;;29.40;27.20;;;;;;5050711;28;19959;-56
2023/09/28 11:26:00;;;;;;;;;;;30.20;26.60;;;;;;5056453;28;19909;-56
2023/09/28 11:28:26;;;;;;;;;;;29.90;26.50;;;;;;5056285;28;20379;-56
2023/09/28 11:31:09;;;;;;;;;;;30.10;28.00;;;;;;5056286;28;19990;-56
2023/09/28 11:33:38;;;;;;;;;;;30.10;26.10;;;;;;5055949;28;19916;-56
2023/09/28 11:36:05;;;;;;;;;;;30.90;27.30;;;;;;5055978;28;19913;-56
2023/09/28 11:38:32;;;;;;;;;;;31.10;26.20;;;;;;5054687;28;19913;-56
2023/09/28 11:40:58;;;;;;;;;;;29.80;26.00;;;;;;5056378;28;20326;-56
2023/09/28 11:43:24;;;;;;;;;;;30.20;27.70;;;;;;5056189;28;19955;-56
2023/09/28 11:45:50;;;;;;;;;;;29.50;27.40;;;;;;5056098;28;19909;-56
2023/09/28 11:48:20;;;;;;;;;;;29.70;26.10;;;;;;5055553;28;20355;-56
2023/09/28 11:50:46;;;;;;;;;;;29.80;25.90;;;;;;5054571;28;19916;-56
2023/09/28 11:53:12;;;;;;;;;;;28.90;27.20;;;;;;5055840;28;19978;-56
2023/09/28 11:55:43;;;;;;;;;;;29.70;28.10;;;;;;5055830;28;19908;-56
2023/09/28 11:58:10;;;;;;;;;;;30.30;27.00;;;;;;5059601;28;20361;-56
2023/09/28 12:00:36;;;;;;;;;;;28.50;27.90;;;;;;5075529;28;19998;-56
2023/09/28 12:03:02;;;;;;;;;;;28.90;28.30;;;;;;5055979;28;19930;-56
2023/09/28 12:05:29;;;;;;;;;;;30.00;29.30;;;;;;5055730;28;19908;-56
2023/09/28 12:07:55;;;;;;;;;;;30.40;28.10;;;;;;5042980;28;19956;-56
2023/09/28 12:10:21;;;;;;;;;;;29.80;26.70;;;;;;5055334;28;19908;-56
2023/09/28 12:12:47;;;;;;;;;;;30.20;27.70;;;;;;5055975;28;19919;-56
2023/09/28 12:15:14;;;;;;;;;;;29.80;26.10;;;;;;5050938;28;19915;-56
2023/09/28 12:17:40;;;;;;;;;;;30.60;27.20;;;;;;5035891;28;19944;-56
2023/09/28 12:20:08;;;;;;;;;;;29.70;27.50;;;;;;5049580;28;20027;-56
2023/09/28 12:22:35;;;;;;;;;;;30.40;25.90;;;;;;5055311;28;20247;-56
2023/09/28 12:25:01;;;;;;;;;;;30.00;25.80;;;;;;5055175;28;20370;-56
2023/09/28 12:27:30;;;;;;;;;;;30.20;25.00;;;;;;5055246;28;19958;-56
2023/09/28 12:29:55;;;;;;;;;;;29.80;26.10;;;;;;5055564;28;20035;-56
2023/09/28 12:32:22;;;;;;;;;;;30.10;25.60;;;;;;5055598;28;20023;-56
2023/09/28 12:34:48;;;;;;;;;;;29.40;27.40;;;;;;5055116;28;19908;-56
2023/09/28 12:37:14;;;;;;;;;;;30.40;25.70;;;;;;5055517;28;19909;-57
2023/09/28 12:39:40;;;;;;;;;;;29.60;24.80;;;;;;5054306;28;20046;-56
2023/09/28 12:42:06;;;;;;;;;;;30.00;25.90;;;;;;5054637;28;20365;-56
2023/09/28 12:44:33;;;;;;;;;;;29.60;26.20;;;;;;5034710;28;19931;-56
2023/09/28 12:46:59;;;;;;;;;;;30.00;24.50;;;;;;5035480;28;19909;-56
2023/09/28 12:49:25;;;;;;;;;;;30.40;25.90;;;;;;5035396;28;19995;-56
2023/09/28 12:51:51;;;;;;;;;;;28.90;24.20;;;;;;5035312;28;19920;-56
2023/09/28 12:54:19;;;;;;;;;;;28.80;25.30;;;;;;5035545;28;19978;-56
2023/09/28 12:56:46;;;;;;;;;;;29.30;26.00;;;;;;5038013;28;20323;-56
2023/09/28 12:59:13;;;;;;;;;;;28.80;26.50;;;;;;5049143;28;19920;-56
2023/09/28 13:01:39;;;;;;;;;;;29.50;28.60;;;;;;5035127;28;19905;-56
2023/09/28 13:04:05;;;;;;;;;;;29.70;24.90;;;;;;5035278;28;19913;-56
2023/09/28 13:06:32;;;;;;;;;;;30.00;26.40;;;;;;5035133;28;20024;-56
2023/09/28 13:09:00;;;;;;;;;;;28.80;25.80;;;;;;5034147;28;20393;-56
2023/09/28 13:11:26;;;;;;;;;;;28.60;27.20;;;;;;5036151;28;19955;-56
2023/09/28 13:13:53;;;;;;;;;;;28.50;25.00;;;;;;5036110;28;19905;-56
2023/09/28 13:16:22;;;;;;;;;;;29.20;27.90;;;;;;5055165;28;20003;-56
2023/09/28 13:18:47;;;;;;;;;;;29.90;26.00;;;;;;5042628;28;19909;-56
2023/09/28 13:21:13;;;;;;;;;;;30.10;25.00;;;;;;5033806;28;19916;-56
2023/09/28 13:23:39;;;;;;;;;;;30.50;24.50;;;;;;5034055;28;19906;-56
2023/09/28 13:26:05;;;;;;;;;;;30.70;25.80;;;;;;5035418;28;19913;-56
2023/09/28 13:28:31;;;;;;;;;;;29.20;25.50;;;;;;5035320;28;19913;-56
2023/09/28 13:30:57;;;;;;;;;;;28.80;26.00;;;;;;5035250;28;19916;-56
2023/09/28 13:33:23;;;;;;;;;;;28.40;25.40;;;;;;5035001;28;19909;-56
2023/09/28 13:35:49;;;;;;;;;;;27.90;25.80;;;;;;5037717;28;19912;-56
2023/09/28 13:38:15;;;;;;;;;;;28.80;26.90;;;;;;5039062;28;19995;-56
2023/09/28 13:40:43;;;;;;;;;;;29.10;26.00;;;;;;5038676;28;19956;-56
2023/09/28 13:43:09;;;;;;;;;;;29.60;25.90;;;;;;5038628;28;19920;-56
2023/09/28 13:45:36;;;;;;;;;;;29.90;25.60;;;;;;5038618;28;19956;-56
2023/09/28 13:48:03;;;;;;;;;;;30.20;25.30;;;;;;5038672;28;19912;-56
2023/09/28 13:50:29;;;;;;;;;;;30.10;24.70;;;;;;5038650;28;19916;-56
2023/09/28 13:52:55;;;;;;;;;;;30.20;26.70;;;;;;5038450;28;19917;-56
2023/09/28 13:55:21;;;;;;;;;;;30.00;24.30;;;;;;5038723;28;19909;-56
2023/09/28 13:57:47;;;;;;;;;;;30.10;25.20;;;;;;5040108;28;20368;-56
2023/09/28 14:00:39;;;;;;;;;;;30.10;24.60;;;;;;5078485;28;19946;-56
2023/09/28 14:03:02;;;;;;;;;;;29.50;24.20;;;;;;5077768;28;19969;-56
2023/09/28 14:05:29;;;;;;;;;;;28.30;26.00;;;;;;5078240;28;19960;-56
2023/09/28 14:07:56;;;;;;;;;;;28.10;26.20;;;;;;5078127;28;19922;-56
2023/09/28 14:10:21;;;;;;;;;;;28.60;26.70;;;;;;5060284;28;19995;-56
2023/09/28 14:12:48;;;;;;;;;;;29.00;26.70;;;;;;5077816;28;20118;-56
2023/09/28 14:15:14;;;;;;;;;;;28.40;26.30;;;;;;5078033;28;19908;-56